Time;durP1;ratioP1;P1;durP2;ratioP2;P2;SDS_P1;SDS_P2;PMS_P1;PMS_P2;Temp;Humidity;BMP_temperature;BMP_pressure;BME280_temperature;BME280_humidity;BME280_pressure;Samples;Min_cycle;Max_cycle;Signal;HPM_P1;HPM_P2
2022/11/23 00:01:31;;;;;;;18.50;3.38;;;;;;;;;;5031707;28;20041;-77
2022/11/23 00:04:00;;;;;;;13.27;4.00;;;;;;;;;;5036498;28;20059;-77
2022/11/23 00:06:26;;;;;;;8.77;3.85;;;;;;;;;;5056174;28;20072;-77
2022/11/23 00:08:53;;;;;;;9.23;3.30;;;;;;;;;;5030983;28;20068;-77
2022/11/23 00:11:20;;;;;;;18.10;3.63;;;;;;;;;;5035044;28;20045;-77
2022/11/23 00:13:46;;;;;;;15.55;5.20;;;;;;;;;;5053784;28;20041;-77
2022/11/23 00:16:14;;;;;;;14.45;4.30;;;;;;;;;;5055570;28;20037;-77
2022/11/23 00:18:40;;;;;;;12.10;3.70;;;;;;;;;;5036394;28;20469;-78
2022/11/23 00:21:10;;;;;;;11.73;3.85;;;;;;;;;;5056262;28;20052;-78
2022/11/23 00:23:36;;;;;;;11.88;5.35;;;;;;;;;;5036319;28;20045;-77
2022/11/23 00:26:03;;;;;;;6.78;3.47;;;;;;;;;;5055969;28;20037;-78
2022/11/23 00:28:29;;;;;;;10.13;4.65;;;;;;;;;;5055754;28;20105;-77
2022/11/23 00:30:55;;;;;;;18.00;6.90;;;;;;;;;;5055383;28;20449;-77
2022/11/23 00:33:22;;;;;;;8.02;3.70;;;;;;;;;;5052225;28;20041;-77
2022/11/23 00:35:48;;;;;;;9.13;3.50;;;;;;;;;;5054091;28;20123;-77
2022/11/23 00:38:14;;;;;;;13.25;3.72;;;;;;;;;;5054812;28;20120;-78
2022/11/23 00:40:40;;;;;;;15.07;4.25;;;;;;;;;;5054332;28;20048;-78
2022/11/23 00:43:06;;;;;;;10.13;3.88;;;;;;;;;;5035409;28;20071;-78
2022/11/23 00:45:32;;;;;;;7.60;3.88;;;;;;;;;;5047232;28;20048;-77
2022/11/23 00:47:58;;;;;;;13.68;4.32;;;;;;;;;;5056438;28;20041;-76
2022/11/23 00:50:24;;;;;;;16.45;7.20;;;;;;;;;;5053294;28;20988;-77
2022/11/23 00:52:50;;;;;;;14.50;3.97;;;;;;;;;;5052185;28;20052;-77
2022/11/23 00:55:17;;;;;;;18.20;3.58;;;;;;;;;;5054220;28;20523;-78
2022/11/23 00:57:43;;;;;;;11.48;4.60;;;;;;;;;;5051630;28;20048;-78
2022/11/23 01:00:11;;;;;;;6.63;3.28;;;;;;;;;;5053692;28;20037;-78
2022/11/23 01:02:37;;;;;;;10.48;3.35;;;;;;;;;;5052637;28;20044;-78
2022/11/23 01:05:03;;;;;;;7.50;3.25;;;;;;;;;;5036749;28;20044;-78
2022/11/23 01:07:29;;;;;;;10.65;4.10;;;;;;;;;;5054914;28;20202;-78
2022/11/23 01:09:56;;;;;;;10.70;4.38;;;;;;;;;;5052760;28;20049;-77
2022/11/23 01:12:23;;;;;;;8.95;3.03;;;;;;;;;;5053758;28;20612;-77
2022/11/23 01:14:52;;;;;;;8.77;3.13;;;;;;;;;;5035882;28;20048;-77
2022/11/23 01:17:18;;;;;;;14.48;4.75;;;;;;;;;;5053573;28;20045;-78
2022/11/23 01:19:44;;;;;;;11.52;3.55;;;;;;;;;;5030419;28;20191;-79
2022/11/23 01:22:12;;;;;;;8.85;3.00;;;;;;;;;;5057437;28;20037;-78
2022/11/23 01:24:38;;;;;;;8.45;2.90;;;;;;;;;;5053430;28;20044;-77
2022/11/23 01:27:04;;;;;;;13.15;3.67;;;;;;;;;;5028621;28;20033;-77
2022/11/23 01:29:30;;;;;;;15.63;3.42;;;;;;;;;;5033513;28;20545;-77
2022/11/23 01:31:57;;;;;;;22.65;4.30;;;;;;;;;;5054516;28;20055;-78
2022/11/23 01:34:23;;;;;;;7.88;3.03;;;;;;;;;;5054821;28;20732;-77
2022/11/23 01:36:49;;;;;;;10.00;3.53;;;;;;;;;;5052306;28;20041;-77
2022/11/23 01:39:15;;;;;;;8.02;3.40;;;;;;;;;;5028774;28;20041;-78
2022/11/23 01:41:42;;;;;;;10.32;3.75;;;;;;;;;;5053025;28;20045;-78
2022/11/23 01:44:25;;;;;;;9.20;2.83;;;;;;;;;;5052391;28;20048;-77
2022/11/23 01:46:51;;;;;;;11.90;4.03;;;;;;;;;;5052816;28;20041;-78
2022/11/23 01:49:17;;;;;;;14.23;2.83;;;;;;;;;;5053114;28;20053;-77
2022/11/23 01:51:45;;;;;;;6.15;3.05;;;;;;;;;;5052146;28;21198;-77
2022/11/23 01:54:13;;;;;;;17.58;4.68;;;;;;;;;;5055098;28;20060;-77
2022/11/23 01:56:41;;;;;;;13.60;3.55;;;;;;;;;;5052983;28;20048;-77
2022/11/23 01:59:10;;;;;;;10.43;2.72;;;;;;;;;;5052343;28;20045;-78
2022/11/23 02:01:36;;;;;;;10.23;4.32;;;;;;;;;;5055322;28;20593;-79
2022/11/23 02:04:03;;;;;;;10.30;3.47;;;;;;;;;;5055509;28;20119;-78
2022/11/23 02:06:29;;;;;;;12.82;3.78;;;;;;;;;;5055426;28;20435;-79
2022/11/23 02:08:56;;;;;;;18.48;4.18;;;;;;;;;;5036854;28;20049;-79
2022/11/23 02:11:22;;;;;;;7.20;3.40;;;;;;;;;;5055733;28;20048;-79
2022/11/23 02:13:49;;;;;;;10.95;3.97;;;;;;;;;;5054473;28;20120;-79
2022/11/23 02:16:16;;;;;;;8.25;3.00;;;;;;;;;;5030792;28;20048;-79
2022/11/23 02:18:44;;;;;;;9.85;3.58;;;;;;;;;;5054405;28;20037;-78
2022/11/23 02:21:10;;;;;;;10.15;3.17;;;;;;;;;;5054965;28;20501;-79
2022/11/23 02:23:58;;;;;;;11.38;4.07;;;;;;;;;;5052464;28;20033;-78
2022/11/23 02:26:26;;;;;;;17.45;5.18;;;;;;;;;;5056295;28;20056;-78
2022/11/23 02:28:56;;;;;;;12.55;4.15;;;;;;;;;;5035364;28;20246;-79
2022/11/23 02:31:22;;;;;;;17.35;4.00;;;;;;;;;;5054565;28;20076;-80
2022/11/23 02:33:48;;;;;;;10.68;3.72;;;;;;;;;;5053890;28;20064;-79
2022/11/23 02:36:25;;;;;;;9.02;3.50;;;;;;;;;;5054408;28;20088;-79
2022/11/23 02:38:53;;;;;;;8.88;5.05;;;;;;;;;;5055802;28;20523;-79
2022/11/23 02:41:19;;;;;;;7.03;4.10;;;;;;;;;;5036360;28;20101;-79
2022/11/23 02:43:46;;;;;;;15.10;4.47;;;;;;;;;;5053949;28;20044;-79
2022/11/23 02:46:13;;;;;;;20.30;4.55;;;;;;;;;;5054797;28;20173;-79
2022/11/23 02:48:39;;;;;;;16.55;6.03;;;;;;;;;;5045316;28;21007;-79
2022/11/23 02:51:05;;;;;;;14.25;4.32;;;;;;;;;;5052862;28;20045;-79
2022/11/23 02:53:31;;;;;;;12.32;5.47;;;;;;;;;;5028054;28;20037;-79
2022/11/23 02:55:57;;;;;;;10.05;4.45;;;;;;;;;;5054133;28;20040;-76
2022/11/23 02:58:25;;;;;;;13.73;3.95;;;;;;;;;;5031410;28;20041;-78
2022/11/23 03:00:51;;;;;;;16.15;4.28;;;;;;;;;;5036902;28;20045;-78
2022/11/23 03:03:17;;;;;;;11.18;4.68;;;;;;;;;;5056098;28;20037;-78
2022/11/23 03:05:43;;;;;;;18.48;4.40;;;;;;;;;;5056448;28;20056;-77
2022/11/23 03:08:09;;;;;;;11.80;4.13;;;;;;;;;;5037286;28;20045;-78
2022/11/23 03:10:35;;;;;;;14.07;4.47;;;;;;;;;;5056902;28;20099;-78
2022/11/23 03:13:01;;;;;;;13.45;3.90;;;;;;;;;;5056149;28;20040;-78
2022/11/23 03:15:28;;;;;;;16.92;4.30;;;;;;;;;;5056830;28;20527;-77
2022/11/23 03:17:54;;;;;;;15.88;4.30;;;;;;;;;;5033140;28;20077;-77
2022/11/23 03:20:20;;;;;;;8.43;3.53;;;;;;;;;;5053603;28;20126;-77
2022/11/23 03:22:46;;;;;;;6.28;3.47;;;;;;;;;;5038017;28;21018;-77
2022/11/23 03:25:12;;;;;;;7.72;4.10;;;;;;;;;;5032636;28;20044;-77
2022/11/23 03:27:38;;;;;;;8.55;4.28;;;;;;;;;;5056281;28;20049;-77
2022/11/23 03:30:06;;;;;;;6.13;3.33;;;;;;;;;;5056776;28;20542;-78
2022/11/23 03:32:32;;;;;;;8.20;3.05;;;;;;;;;;5057109;28;20120;-78
2022/11/23 03:34:58;;;;;;;9.00;3.20;;;;;;;;;;5058061;28;20041;-77
2022/11/23 03:37:24;;;;;;;11.07;5.25;;;;;;;;;;5057835;28;20103;-78
2022/11/23 03:39:50;;;;;;;9.55;3.85;;;;;;;;;;5057449;28;20115;-78
2022/11/23 03:42:16;;;;;;;9.50;3.53;;;;;;;;;;5055745;28;20057;-78
2022/11/23 03:44:42;;;;;;;6.45;3.10;;;;;;;;;;5032164;28;20136;-78
2022/11/23 03:47:09;;;;;;;17.50;3.20;;;;;;;;;;5055676;28;20549;-78
2022/11/23 03:49:35;;;;;;;6.68;4.13;;;;;;;;;;5057418;28;20091;-78
2022/11/23 03:52:01;;;;;;;12.68;3.15;;;;;;;;;;5057290;28;20052;-78
2022/11/23 03:54:27;;;;;;;11.18;4.00;;;;;;;;;;5056280;28;20048;-77
2022/11/23 03:56:53;;;;;;;8.52;2.92;;;;;;;;;;5056357;28;20044;-78
2022/11/23 03:59:19;;;;;;;5.65;3.30;;;;;;;;;;5036135;28;20041;-77
2022/11/23 04:01:45;;;;;;;12.23;3.60;;;;;;;;;;5056504;28;20120;-77
2022/11/23 04:04:11;;;;;;;10.57;3.97;;;;;;;;;;5056346;28;20529;-77
2022/11/23 04:06:37;;;;;;;7.63;2.92;;;;;;;;;;5036814;28;20053;-77
2022/11/23 04:09:03;;;;;;;11.45;4.38;;;;;;;;;;5054544;28;20112;-77
2022/11/23 04:11:29;;;;;;;9.18;3.13;;;;;;;;;;5056335;28;20138;-78
2022/11/23 04:13:55;;;;;;;8.52;2.58;;;;;;;;;;5056064;28;20128;-78
2022/11/23 04:16:21;;;;;;;12.45;3.42;;;;;;;;;;5056255;28;20101;-77
2022/11/23 04:18:47;;;;;;;8.77;4.95;;;;;;;;;;5031644;28;20045;-77
2022/11/23 04:21:14;;;;;;;10.60;3.15;;;;;;;;;;5057477;28;20045;-77
2022/11/23 04:23:40;;;;;;;5.50;3.65;;;;;;;;;;5056908;28;20529;-78
2022/11/23 04:26:06;;;;;;;10.30;2.55;;;;;;;;;;5038933;28;20065;-78
2022/11/23 04:28:32;;;;;;;7.68;3.85;;;;;;;;;;5057449;28;20045;-78
2022/11/23 04:30:58;;;;;;;7.57;3.10;;;;;;;;;;5055373;28;20048;-78
2022/11/23 04:33:25;;;;;;;6.50;2.33;;;;;;;;;;5056340;28;20327;-78
2022/11/23 04:35:51;;;;;;;5.50;2.10;;;;;;;;;;5033086;28;20052;-78
2022/11/23 04:38:17;;;;;;;10.23;3.13;;;;;;;;;;5057853;28;20041;-78
2022/11/23 04:40:46;;;;;;;5.28;2.80;;;;;;;;;;5058136;28;20056;-78
2022/11/23 04:43:12;;;;;;;7.55;2.78;;;;;;;;;;5057611;28;20072;-78
2022/11/23 04:45:39;;;;;;;7.78;2.50;;;;;;;;;;5057676;28;21218;-78
2022/11/23 04:48:06;;;;;;;5.97;2.75;;;;;;;;;;5037742;28;20584;-78
2022/11/23 04:50:33;;;;;;;7.95;2.60;;;;;;;;;;5056629;28;20092;-78
2022/11/23 04:52:59;;;;;;;10.90;2.97;;;;;;;;;;5056867;28;20037;-78
2022/11/23 04:55:25;;;;;;;9.93;3.03;;;;;;;;;;5056142;28;20053;-78
2022/11/23 04:57:51;;;;;;;7.90;3.95;;;;;;;;;;5053381;28;20052;-77
2022/11/23 05:00:17;;;;;;;8.73;2.78;;;;;;;;;;5036347;28;20056;-77
2022/11/23 05:02:43;;;;;;;11.85;2.40;;;;;;;;;;5054526;28;20033;-77
2022/11/23 05:05:10;;;;;;;10.52;4.60;;;;;;;;;;5029948;28;20043;-78
2022/11/23 05:07:36;;;;;;;7.32;2.92;;;;;;;;;;5036543;28;20044;-78
2022/11/23 05:10:03;;;;;;;7.10;2.72;;;;;;;;;;5054511;28;20045;-77
2022/11/23 05:12:29;;;;;;;9.57;2.88;;;;;;;;;;5055048;28;20055;-77
2022/11/23 05:14:55;;;;;;;6.15;3.38;;;;;;;;;;5030229;28;20096;-77
2022/11/23 05:17:21;;;;;;;7.53;2.03;;;;;;;;;;5055358;28;20295;-77
2022/11/23 05:19:47;;;;;;;7.28;2.65;;;;;;;;;;5030578;28;20037;-78
2022/11/23 05:22:13;;;;;;;6.20;3.05;;;;;;;;;;5054303;28;20045;-77
2022/11/23 05:24:39;;;;;;;6.82;3.05;;;;;;;;;;5055285;28;20136;-77
2022/11/23 05:27:05;;;;;;;4.60;2.30;;;;;;;;;;5055897;28;20049;-78
2022/11/23 05:29:31;;;;;;;5.65;1.88;;;;;;;;;;5055590;28;20033;-78
2022/11/23 05:31:57;;;;;;;8.73;2.63;;;;;;;;;;5053235;28;20037;-78
2022/11/23 05:34:23;;;;;;;6.03;2.67;;;;;;;;;;5055938;28;20900;-78
2022/11/23 05:36:49;;;;;;;7.10;2.33;;;;;;;;;;5053087;28;20045;-77
2022/11/23 05:39:16;;;;;;;6.95;2.42;;;;;;;;;;5029914;28;20056;-78
2022/11/23 05:41:42;;;;;;;8.25;2.58;;;;;;;;;;5053597;28;20051;-77
2022/11/23 05:44:08;;;;;;;10.88;2.20;;;;;;;;;;5029134;28;20052;-78
2022/11/23 05:46:34;;;;;;;8.80;2.20;;;;;;;;;;5036182;28;20045;-79
2022/11/23 05:49:00;;;;;;;3.20;1.88;;;;;;;;;;5053669;28;20044;-78
2022/11/23 05:51:26;;;;;;;6.82;2.20;;;;;;;;;;5054889;28;20551;-79
2022/11/23 05:53:52;;;;;;;8.43;3.05;;;;;;;;;;5031090;28;20049;-78
2022/11/23 05:56:18;;;;;;;3.28;1.60;;;;;;;;;;5051536;28;20047;-77
2022/11/23 05:58:44;;;;;;;4.70;1.77;;;;;;;;;;5050443;28;20045;-78
2022/11/23 06:01:11;;;;;;;3.63;1.90;;;;;;;;;;5050673;28;21113;-78
2022/11/23 06:03:37;;;;;;;3.72;2.00;;;;;;;;;;5052954;28;20128;-78
2022/11/23 06:06:03;;;;;;;5.47;2.20;;;;;;;;;;5052041;28;21260;-78
2022/11/23 06:08:29;;;;;;;7.43;4.13;;;;;;;;;;5032369;28;20069;-78
2022/11/23 06:10:55;;;;;;;11.43;2.80;;;;;;;;;;5053487;28;20045;-79
2022/11/23 06:13:21;;;;;;;4.25;1.92;;;;;;;;;;5033442;28;20404;-77
2022/11/23 06:15:47;;;;;;;3.58;1.20;;;;;;;;;;5047779;28;20049;-76
2022/11/23 06:18:14;;;;;;;2.58;1.40;;;;;;;;;;5055125;28;20037;-77
2022/11/23 06:20:40;;;;;;;2.67;1.65;;;;;;;;;;5055810;28;20033;-78
2022/11/23 06:23:06;;;;;;;7.38;1.63;;;;;;;;;;5056364;28;20042;-78
2022/11/23 06:25:32;;;;;;;3.25;1.30;;;;;;;;;;5055312;28;20037;-78
2022/11/23 06:27:59;;;;;;;2.10;1.20;;;;;;;;;;5056677;28;20048;-78
2022/11/23 06:30:26;;;;;;;4.25;1.73;;;;;;;;;;5054980;28;20041;-78
2022/11/23 06:32:52;;;;;;;2.65;1.33;;;;;;;;;;5061217;28;20578;-79
2022/11/23 06:35:18;;;;;;;2.75;1.63;;;;;;;;;;5060625;28;20056;-78
2022/11/23 06:37:45;;;;;;;3.55;1.95;;;;;;;;;;5058140;28;20748;-77
2022/11/23 06:40:11;;;;;;;4.80;1.60;;;;;;;;;;5059296;28;20132;-78
2022/11/23 06:42:37;;;;;;;4.75;1.75;;;;;;;;;;5059733;28;20045;-78
2022/11/23 06:45:04;;;;;;;2.75;1.58;;;;;;;;;;5033932;28;20052;-78
2022/11/23 06:47:30;;;;;;;5.63;2.13;;;;;;;;;;5059721;28;20045;-78
2022/11/23 06:49:56;;;;;;;4.72;4.03;;;;;;;;;;5057184;28;20543;-79
2022/11/23 06:52:22;;;;;;;3.08;1.50;;;;;;;;;;5058811;28;20049;-79
2022/11/23 06:54:48;;;;;;;7.70;2.30;;;;;;;;;;5035436;28;20049;-78
2022/11/23 06:57:14;;;;;;;2.53;1.50;;;;;;;;;;5061879;28;20072;-78
2022/11/23 06:59:40;;;;;;;3.67;1.63;;;;;;;;;;5062214;28;20092;-80
2022/11/23 07:02:13;;;;;;;11.05;3.10;;;;;;;;;;5062450;28;20219;-79
2022/11/23 07:04:39;;;;;;;7.97;2.30;;;;;;;;;;5038220;28;20045;-79
2022/11/23 07:07:08;;;;;;;3.80;2.13;;;;;;;;;;5063720;28;20079;-79
2022/11/23 07:09:35;;;;;;;3.60;2.05;;;;;;;;;;5068367;28;21285;-78
2022/11/23 07:12:01;;;;;;;7.05;2.20;;;;;;;;;;5066486;28;20121;-79
2022/11/23 07:14:27;;;;;;;6.53;1.42;;;;;;;;;;5064293;28;20045;-79
2022/11/23 07:16:53;;;;;;;7.43;1.85;;;;;;;;;;5069739;28;20140;-79
2022/11/23 07:19:19;;;;;;;5.82;1.77;;;;;;;;;;5071078;28;20542;-79
2022/11/23 07:21:45;;;;;;;5.78;1.83;;;;;;;;;;5071410;28;20041;-78
2022/11/23 07:24:11;;;;;;;2.42;1.67;;;;;;;;;;5068493;28;20052;-81
2022/11/23 07:26:37;;;;;;;2.83;1.52;;;;;;;;;;5047454;28;20037;-82
2022/11/23 07:29:04;;;;;;;5.88;2.35;;;;;;;;;;5061244;28;21502;-81
2022/11/23 07:31:30;;;;;;;3.60;1.60;;;;;;;;;;5044643;28;20067;-81
2022/11/23 07:33:56;;;;;;;2.65;1.40;;;;;;;;;;5060208;28;20045;-80
2022/11/23 07:36:22;;;;;;;4.10;1.75;;;;;;;;;;5061080;28;20036;-79
2022/11/23 07:38:48;;;;;;;4.97;1.67;;;;;;;;;;5059540;28;20522;-79
2022/11/23 07:41:14;;;;;;;5.28;1.63;;;;;;;;;;5032130;28;20045;-82
2022/11/23 07:43:40;;;;;;;5.13;2.40;;;;;;;;;;5056221;28;20049;-83
2022/11/23 07:46:06;;;;;;;3.60;1.85;;;;;;;;;;5054281;28;20041;-82
2022/11/23 07:48:32;;;;;;;3.92;1.45;;;;;;;;;;5057938;28;20041;-82
2022/11/23 07:50:58;;;;;;;2.08;1.33;;;;;;;;;;5057200;28;20045;-82
2022/11/23 07:53:25;;;;;;;3.40;1.58;;;;;;;;;;5056193;28;20041;-82
2022/11/23 07:55:54;;;;;;;6.22;1.48;;;;;;;;;;5057643;28;20641;-82
2022/11/23 07:58:20;;;;;;;2.00;1.67;;;;;;;;;;5057240;28;20037;-82
2022/11/23 08:00:46;;;;;;;4.28;1.65;;;;;;;;;;5058354;28;20103;-82
2022/11/23 08:03:13;;;;;;;2.22;1.58;;;;;;;;;;5038628;28;20073;-82
2022/11/23 08:05:39;;;;;;;5.05;1.60;;;;;;;;;;5059178;28;20139;-82
2022/11/23 08:08:05;;;;;;;3.97;1.42;;;;;;;;;;5040344;28;20076;-83
2022/11/23 08:10:32;;;;;;;2.42;1.63;;;;;;;;;;5057050;28;20047;-82
2022/11/23 08:12:58;;;;;;;2.40;1.33;;;;;;;;;;5041001;28;21144;-83
2022/11/23 08:15:26;;;;;;;4.20;1.38;;;;;;;;;;5039515;28;20740;-82
2022/11/23 08:17:59;;;;;;;2.60;1.63;;;;;;;;;;5058164;28;20044;-83
2022/11/23 08:20:26;;;;;;;3.08;1.10;;;;;;;;;;5059858;28;20033;-81
2022/11/23 08:22:54;;;;;;;3.70;1.65;;;;;;;;;;5056395;28;20096;-81
2022/11/23 08:25:21;;;;;;;1.73;1.30;;;;;;;;;;5059290;28;20044;-82
2022/11/23 08:27:47;;;;;;;5.43;1.58;;;;;;;;;;5058319;28;20162;-81
2022/11/23 08:30:13;;;;;;;5.80;2.00;;;;;;;;;;5057455;28;20120;-81
2022/11/23 08:32:40;;;;;;;9.00;1.65;;;;;;;;;;5057547;28;20881;-80
2022/11/23 08:35:06;;;;;;;4.15;1.70;;;;;;;;;;5040031;28;20049;-81
2022/11/23 08:37:32;;;;;;;4.90;1.83;;;;;;;;;;5058564;28;20122;-82
2022/11/23 08:39:58;;;;;;;4.18;1.70;;;;;;;;;;5039109;28;20081;-81
2022/11/23 08:42:25;;;;;;;4.03;1.60;;;;;;;;;;5058158;28;20041;-81
2022/11/23 08:44:51;;;;;;;3.75;1.70;;;;;;;;;;5039622;28;20095;-80
2022/11/23 08:47:18;;;;;;;3.38;1.70;;;;;;;;;;5058175;28;20084;-80
2022/11/23 08:49:44;;;;;;;6.22;1.52;;;;;;;;;;5057722;28;20065;-79
2022/11/23 08:52:10;;;;;;;3.55;1.58;;;;;;;;;;5033904;28;20037;-78
2022/11/23 08:54:36;;;;;;;4.18;1.77;;;;;;;;;;5056720;28;20102;-79
2022/11/23 08:57:02;;;;;;;3.53;2.15;;;;;;;;;;5056315;28;20044;-80
2022/11/23 08:59:28;;;;;;;4.25;1.60;;;;;;;;;;5055463;28;20056;-80
2022/11/23 09:01:55;;;;;;;3.30;1.60;;;;;;;;;;5055445;28;20041;-80
2022/11/23 09:04:21;;;;;;;2.28;1.45;;;;;;;;;;5057662;28;20041;-80
2022/11/23 09:06:47;;;;;;;3.42;1.63;;;;;;;;;;5054579;28;20049;-79
2022/11/23 09:09:13;;;;;;;2.22;1.33;;;;;;;;;;5056801;28;20064;-81
2022/11/23 09:11:39;;;;;;;6.88;1.40;;;;;;;;;;5056378;28;20044;-81
2022/11/23 09:14:05;;;;;;;2.75;1.70;;;;;;;;;;5032440;28;20068;-81
2022/11/23 09:16:31;;;;;;;3.25;1.70;;;;;;;;;;5037610;28;20076;-81
2022/11/23 09:18:57;;;;;;;6.28;1.52;;;;;;;;;;5056959;28;20084;-82
2022/11/23 09:21:28;;;;;;;6.20;2.45;;;;;;;;;;5057548;28;20045;-80
2022/11/23 09:23:54;;;;;;;1.52;0.93;;;;;;;;;;5039542;28;20094;-82
2022/11/23 09:26:20;;;;;;;3.83;1.05;;;;;;;;;;5049531;28;20090;-82
2022/11/23 09:28:46;;;;;;;1.13;0.90;;;;;;;;;;5056650;28;20037;-80
2022/11/23 09:31:12;;;;;;;1.50;0.90;;;;;;;;;;5055758;28;20048;-80
2022/11/23 09:33:38;;;;;;;3.38;1.38;;;;;;;;;;5057162;28;20052;-81
2022/11/23 09:36:04;;;;;;;1.67;1.08;;;;;;;;;;5056690;28;20119;-82
2022/11/23 09:38:31;;;;;;;2.78;1.20;;;;;;;;;;5057476;28;20045;-81
2022/11/23 09:41:03;;;;;;;2.80;1.10;;;;;;;;;;5057241;28;20542;-82
2022/11/23 09:43:29;;;;;;;;;;;;;;;;;;5054188;28;20045;-82
2022/11/23 09:45:56;;;;;;;3.72;1.98;;;;;;;;;;5057342;28;19979;-80
2022/11/23 09:48:28;;;;;;;4.22;1.20;;;;;;;;;;5057059;28;20049;-82
2022/11/23 09:50:54;;;;;;;;;;;;;;;;;;5057981;28;20041;-83
2022/11/23 09:53:24;;;;;;;2.63;1.17;;;;;;;;;;5039306;28;19920;-82
2022/11/23 09:55:52;;;;;;;1.10;0.85;;;;;;;;;;5032915;28;20041;-81
2022/11/23 09:58:20;;;;;;;2.10;0.73;;;;;;;;;;5057097;28;20049;-81
2022/11/23 10:01:06;;;;;;;1.27;0.65;;;;;;;;;;5054600;28;20052;-82
2022/11/23 10:03:34;;;;;;;0.70;0.60;;;;;;;;;;5032222;28;20094;-81
2022/11/23 10:06:04;;;;;;;0.63;0.63;;;;;;;;;;5057884;28;20140;-80
2022/11/23 10:08:35;;;;;;;1.13;0.88;;;;;;;;;;5058966;28;20053;-81
2022/11/23 10:11:01;;;;;;;0.70;0.53;;;;;;;;;;5060612;28;20069;-82
2022/11/23 10:13:33;;;;;;;1.23;0.93;;;;;;;;;;5060370;28;20104;-81
2022/11/23 10:16:02;;;;;;;2.50;1.48;;;;;;;;;;5041826;28;20515;-81
2022/11/23 10:18:47;;;;;;;1.50;1.10;;;;;;;;;;5042792;28;20438;-81
2022/11/23 10:21:13;;;;;;;1.40;1.00;;;;;;;;;;5058482;28;20565;-80
2022/11/23 10:23:55;;;;;;;1.60;1.00;;;;;;;;;;5058553;28;20037;-81
2022/11/23 10:26:30;;;;;;;2.85;1.45;;;;;;;;;;5034552;28;20537;-80
2022/11/23 10:28:58;;;;;;;1.80;1.20;;;;;;;;;;5040552;28;20944;-81
2022/11/23 10:31:27;;;;;;;2.90;1.73;;;;;;;;;;5060422;28;20053;-81
2022/11/23 10:34:00;;;;;;;2.20;1.50;;;;;;;;;;5034808;28;20036;-80
2022/11/23 10:36:26;;;;;;;3.22;1.63;;;;;;;;;;5060427;28;20045;-81
2022/11/23 10:38:57;;;;;;;2.67;1.40;;;;;;;;;;5057582;28;20045;-80
2022/11/23 10:41:23;;;;;;;3.13;1.30;;;;;;;;;;5060347;28;20051;-80
2022/11/23 10:43:58;;;;;;;1.75;1.00;;;;;;;;;;5039314;28;20113;-80
2022/11/23 10:46:33;;;;;;;1.38;1.25;;;;;;;;;;5056526;28;20052;-80
2022/11/23 10:49:12;;;;;;;1.65;0.77;;;;;;;;;;5057036;28;20052;-81
2022/11/23 10:51:39;;;;;;;0.85;0.77;;;;;;;;;;5056583;28;20041;-81
2022/11/23 10:54:15;;;;;;;2.88;1.13;;;;;;;;;;5058090;28;20064;-81
2022/11/23 10:56:45;;;;;;;5.95;1.30;;;;;;;;;;5032196;28;20111;-80
2022/11/23 10:59:24;;;;;;;0.93;0.82;;;;;;;;;;5035370;28;20048;-80
2022/11/23 11:02:01;;;;;;;2.78;1.35;;;;;;;;;;5039283;28;20079;-80
2022/11/23 11:04:27;;;;;;;2.20;1.67;;;;;;;;;;5039783;28;20041;-80
2022/11/23 11:07:09;;;;;;;3.90;1.00;;;;;;;;;;5033590;28;20410;-80
2022/11/23 11:09:35;;;;;;;;;;;;;;;;;;5035328;28;20060;-80
2022/11/23 11:12:01;;;;;;;3.00;1.27;;;;;;;;;;5032978;28;19975;-81
2022/11/23 11:14:27;;;;;;;2.42;1.10;;;;;;;;;;5057036;28;20121;-79
2022/11/23 11:16:54;;;;;;;5.13;1.40;;;;;;;;;;5058609;28;20152;-80
2022/11/23 11:19:31;;;;;;;5.55;1.40;;;;;;;;;;5056599;28;20052;-80
2022/11/23 11:21:59;;;;;;;4.32;1.52;;;;;;;;;;5033540;28;20085;-80
2022/11/23 11:24:38;;;;;;;5.75;2.50;;;;;;;;;;5038690;28;20092;-79
2022/11/23 11:27:06;;;;;;;3.72;1.65;;;;;;;;;;5055432;28;20068;-77
2022/11/23 11:29:34;;;;;;;3.83;1.33;;;;;;;;;;5058326;28;20091;-78
2022/11/23 11:32:11;;;;;;;2.78;1.50;;;;;;;;;;5057720;28;20396;-78
2022/11/23 11:34:47;;;;;;;4.85;1.75;;;;;;;;;;5040330;28;20945;-77
2022/11/23 11:37:23;;;;;;;5.57;2.35;;;;;;;;;;5056966;28;20072;-78
2022/11/23 11:39:58;;;;;;;3.65;1.70;;;;;;;;;;5056635;28;20605;-78
2022/11/23 11:42:33;;;;;;;2.95;1.27;;;;;;;;;;5038269;28;20102;-77
2022/11/23 11:45:01;;;;;;;7.65;2.13;;;;;;;;;;5057764;28;20504;-77
2022/11/23 11:47:36;;;;;;;6.10;2.22;;;;;;;;;;5057872;28;20044;-78
2022/11/23 11:50:10;;;;;;;8.50;2.15;;;;;;;;;;5056836;28;20808;-78
2022/11/23 11:52:41;;;;;;;4.18;2.13;;;;;;;;;;5040055;28;20048;-78
2022/11/23 11:55:07;;;;;;;5.13;2.92;;;;;;;;;;5057229;28;20040;-78
2022/11/23 11:57:36;;;;;;;5.85;2.72;;;;;;;;;;5057162;28;20527;-78
2022/11/23 12:00:05;;;;;;;7.80;2.78;;;;;;;;;;5056387;28;20052;-78
2022/11/23 12:02:35;;;;;;;5.60;2.10;;;;;;;;;;5056298;28;20869;-79
2022/11/23 12:05:14;;;;;;;2.72;1.60;;;;;;;;;;5040164;28;20730;-78
2022/11/23 12:07:59;;;;;;;7.13;2.45;;;;;;;;;;5018406;28;20125;-79
2022/11/23 12:10:28;;;;;;;3.80;1.15;;;;;;;;;;5009760;28;20061;-77
2022/11/23 12:12:55;;;;;;;5.25;1.88;;;;;;;;;;5017884;28;21218;-78
2022/11/23 12:15:25;;;;;;;8.40;2.90;;;;;;;;;;5033759;28;20042;-78
2022/11/23 12:17:57;;;;;;;6.68;1.90;;;;;;;;;;5018957;28;20069;-78
2022/11/23 12:20:23;;;;;;;;;;;;;;;;;;5018714;28;20090;-78
2022/11/23 12:22:54;;;;;;;10.02;2.90;;;;;;;;;;5016149;28;19921;-78
2022/11/23 12:25:56;;;;;;;5.77;2.10;;;;;;;;;;5017093;28;20044;-78
2022/11/23 12:28:37;;;;;;;4.18;1.20;;;;;;;;;;4930730;28;20371;-77
2022/11/23 12:31:22;;;;;;;4.90;1.60;;;;;;;;;;5001067;28;20084;-78
2022/11/23 12:33:48;;;;;;;8.77;4.18;;;;;;;;;;5009291;28;20087;-77
2022/11/23 12:36:32;;;;;;;10.70;2.33;;;;;;;;;;5010737;28;20516;-78
2022/11/23 12:38:58;;;;;;;8.13;2.13;;;;;;;;;;5017107;28;20046;-79
2022/11/23 12:41:36;;;;;;;10.55;1.75;;;;;;;;;;5018574;28;20038;-78
2022/11/23 12:44:17;;;;;;;5.63;2.45;;;;;;;;;;5016612;28;20046;-78
2022/11/23 12:46:58;;;;;;;3.88;1.60;;;;;;;;;;5010596;28;20045;-78
2022/11/23 12:49:43;;;;;;;4.70;2.20;;;;;;;;;;5009547;28;20050;-78
2022/11/23 12:52:10;;;;;;;8.23;2.00;;;;;;;;;;5031723;28;20320;-78
2022/11/23 12:54:54;;;;;;;9.85;2.50;;;;;;;;;;5017627;28;20077;-78
2022/11/23 12:57:23;;;;;;;7.32;2.92;;;;;;;;;;5015047;28;20046;-77
2022/11/23 12:59:52;;;;;;;15.63;2.22;;;;;;;;;;5008214;28;20081;-77
2022/11/23 13:02:38;;;;;;;10.02;2.53;;;;;;;;;;5008660;28;20523;-77
2022/11/23 13:05:20;;;;;;;13.38;2.70;;;;;;;;;;5022780;28;20658;-77
2022/11/23 13:08:15;;;;;;;4.95;1.85;;;;;;;;;;5029143;28;20483;-78
2022/11/23 13:10:53;;;;;;;5.40;2.95;;;;;;;;;;4974432;28;20083;-77
2022/11/23 13:13:25;;;;;;;6.20;1.90;;;;;;;;;;5035454;28;20076;-77
2022/11/23 13:16:05;;;;;;;9.88;3.13;;;;;;;;;;5035524;28;20564;-77
2022/11/23 13:18:31;;;;;;;7.50;1.90;;;;;;;;;;5035350;28;20048;-78
2022/11/23 13:20:57;;;;;;;8.57;2.22;;;;;;;;;;5029441;28;20060;-78
2022/11/23 13:23:24;;;;;;;7.35;3.25;;;;;;;;;;5035834;28;20132;-77
2022/11/23 13:26:08;;;;;;;12.40;3.08;;;;;;;;;;5035673;28;20049;-78
2022/11/23 13:28:35;;;;;;;17.90;5.57;;;;;;;;;;5031874;28;20052;-76
2022/11/23 13:31:16;;;;;;;18.73;3.55;;;;;;;;;;5035559;28;20048;-78
2022/11/23 13:33:43;;;;;;;9.23;2.10;;;;;;;;;;5025940;28;20075;-77
2022/11/23 13:36:10;;;;;;;11.82;3.13;;;;;;;;;;5035815;28;20444;-77
2022/11/23 13:38:40;;;;;;;19.88;3.65;;;;;;;;;;5027546;28;20119;-78
2022/11/23 13:41:25;;;;;;;7.30;3.03;;;;;;;;;;5027287;28;20037;-77
2022/11/23 13:43:51;;;;;;;8.25;3.00;;;;;;;;;;5031901;28;20041;-78
2022/11/23 13:46:23;;;;;;;14.10;2.53;;;;;;;;;;5026933;28;20120;-77
2022/11/23 13:48:51;;;;;;;9.57;2.75;;;;;;;;;;5033281;28;20037;-77
2022/11/23 13:51:24;;;;;;;8.18;2.83;;;;;;;;;;5036156;28;20928;-77
2022/11/23 13:53:52;;;;;;;10.15;2.90;;;;;;;;;;5026227;28;20045;-77
2022/11/23 13:56:44;;;;;;;7.22;3.65;;;;;;;;;;5034548;28;20080;-77
2022/11/23 13:59:37;;;;;;;9.23;2.40;;;;;;;;;;5040107;28;20046;-78
2022/11/23 14:02:06;;;;;;;12.05;2.40;;;;;;;;;;5033363;28;20042;-76
2022/11/23 14:04:42;;;;;;;12.48;2.65;;;;;;;;;;5036253;28;20038;-78
2022/11/23 14:07:08;;;;;;;14.88;3.17;;;;;;;;;;5050731;28;20084;-77
2022/11/23 14:09:48;;;;;;;11.30;2.88;;;;;;;;;;5055483;28;20648;-77
2022/11/23 14:12:34;;;;;;;4.15;1.85;;;;;;;;;;5053869;28;20089;-76
2022/11/23 14:15:08;;;;;;;15.90;3.05;;;;;;;;;;5054292;28;20223;-78
2022/11/23 14:17:58;;;;;;;16.13;4.45;;;;;;;;;;5054775;28;20043;-78
2022/11/23 14:20:24;;;;;;;12.35;4.35;;;;;;;;;;5036218;28;20071;-77
2022/11/23 14:23:03;;;;;;;11.27;1.92;;;;;;;;;;5055546;28;20045;-78
2022/11/23 14:25:48;;;;;;;6.47;2.25;;;;;;;;;;5053364;28;20045;-77
2022/11/23 14:28:18;;;;;;;10.93;3.08;;;;;;;;;;5052659;28;20033;-77
2022/11/23 14:30:47;;;;;;;16.08;3.28;;;;;;;;;;5030940;28;20067;-76
2022/11/23 14:33:48;;;;;;;9.05;2.60;;;;;;;;;;5054940;28;20044;-77
2022/11/23 14:36:18;;;;;;;7.93;2.23;;;;;;;;;;4953848;28;20044;-77
2022/11/23 14:38:47;;;;;;;8.23;2.63;;;;;;;;;;5037944;28;20625;-77
2022/11/23 14:41:16;;;;;;;10.55;2.42;;;;;;;;;;5029437;28;20041;-76
2022/11/23 14:43:44;;;;;;;4.38;1.63;;;;;;;;;;5055817;28;20099;-76
2022/11/23 14:46:15;;;;;;;11.10;4.55;;;;;;;;;;5055373;28;20486;-76
2022/11/23 14:48:41;;;;;;;12.20;3.60;;;;;;;;;;5056037;28;20041;-76
2022/11/23 14:51:13;;;;;;;7.78;1.98;;;;;;;;;;5054870;28;20041;-77